»·PEaware :: DAL232 KSLC-KBIL

DAL232 :: KSLC-KBIL

FLIGHT INFORMATION

Flight Status: Arrived
Operator:
Delta Air Lines
More flights by this operator :: More flights under this callsign
Pilot: Rehan R. (23450)
Aircraft: BOEING 777-200
(B772)
More flights by this aircraft type
Origin: KSLC Salt Lake City Intl
United States
Destination: KBIL Billings Logan Intl
United States
More flights between these airports :: More routes between these airports
Route: RUGGD1 HOLTR YLSTN JEKUG
File this flight plan on PilotEdge
Remarks:
Altitude:
(Current/Filed)
31,000ft
Speed:
(Current/Filed)
320kts
Departed: 17-Nov-20 07:55 PM
Arrived: 17-Nov-20 08:54 PM
Distance/Time
Traveled:
336nm/0:59
Distance/Time
To Go:
Arrived

Flight Plot

Page will automatically refresh every two minutes.

Flight plan parsing failed; only flown route is shown


Map Options




Map Legend


Flown Route
Filed Route
Departure Airport
Arrival Airport
Navaid (VOR, NDB)
Fix

Horizontal Profiles

Position Reports

Time Latitude Longitude Heading Altitude Ground
Speed
17-Nov-20 19:14 40.787326 -111.977690 264 4240ft 0kts
17-Nov-20 19:15 40.787326 -111.977690 264 4240ft 0kts
17-Nov-20 19:16 40.787326 -111.977690 264 4240ft 0kts
17-Nov-20 19:17 40.787326 -111.977690 264 4240ft 0kts
17-Nov-20 19:18 40.787326 -111.977690 264 4240ft 0kts
17-Nov-20 19:19 40.787326 -111.977690 264 4240ft 0kts
17-Nov-20 19:20 40.787326 -111.977690 264 4240ft 0kts
17-Nov-20 19:21 40.787326 -111.977690 264 4240ft 0kts
17-Nov-20 19:22 40.787326 -111.977690 264 4240ft 0kts
17-Nov-20 19:23 40.787326 -111.977690 264 4240ft 0kts
17-Nov-20 19:24 40.787326 -111.977690 264 4240ft 0kts
17-Nov-20 19:25 40.787326 -111.977690 264 4240ft 0kts
17-Nov-20 19:26 40.787326 -111.977690 264 4240ft 0kts
17-Nov-20 19:27 40.787326 -111.977690 264 4240ft 0kts
17-Nov-20 19:28 40.787326 -111.977690 264 4240ft 0kts
17-Nov-20 19:29 40.787326 -111.977690 264 4240ft 0kts
17-Nov-20 19:30 40.787326 -111.977690 264 4240ft 0kts
17-Nov-20 19:31 40.787326 -111.977690 264 4240ft 0kts
17-Nov-20 19:32 40.787326 -111.977690 264 4240ft 0kts
17-Nov-20 19:33 40.787326 -111.977690 264 4240ft 0kts
17-Nov-20 19:34 40.787326 -111.977690 264 4240ft 0kts
17-Nov-20 19:35 40.787326 -111.977690 264 4240ft 0kts
17-Nov-20 19:36 40.787326 -111.977690 264 4240ft 0kts
17-Nov-20 19:37 40.787326 -111.977690 264 4240ft 0kts
17-Nov-20 19:38 40.787326 -111.977690 264 4240ft 0kts
17-Nov-20 19:39 40.787326 -111.977690 264 4240ft 0kts
17-Nov-20 19:40 40.787326 -111.977690 264 4240ft 0kts
17-Nov-20 19:41 40.787326 -111.977690 264 4240ft 0kts
17-Nov-20 19:42 40.787334 -111.977575 264 4240ft 2kts
17-Nov-20 19:43 40.787406 -111.976545 264 4240ft 2kts
17-Nov-20 19:44 40.787426 -111.976254 264 4240ft 0kts
17-Nov-20 19:45 40.787426 -111.976254 264 4240ft 0kts
17-Nov-20 19:46 40.787426 -111.976254 264 4240ft 0kts
17-Nov-20 19:47 40.788839 -111.976896 356 4240ft 15kts
17-Nov-20 19:48 40.794889 -111.977579 354 4240ft 24kts
17-Nov-20 19:49 40.801984 -111.978426 354 4240ft 26kts
17-Nov-20 19:50 40.807331 -111.978615 68 4240ft 5kts
17-Nov-20 19:51 40.807359 -111.978416 83 4240ft 0kts
17-Nov-20 19:52 40.807366 -111.978305 85 4240ft 3kts
17-Nov-20 19:53 40.806458 -111.976734 175 4240ft 2kts
17-Nov-20 19:54 40.786771 -111.974429 174 4248ft 184kts
17-Nov-20 19:55 40.733430 -111.966497 176 6656ft 210kts
17-Nov-20 19:56 40.706973 -112.028250 292 8005ft 245kts
17-Nov-20 19:57 40.741209 -112.106341 297 10019ft 248kts
17-Nov-20 19:58 40.775369 -112.185302 297 10972ft 254kts
17-Nov-20 19:59 40.810739 -112.266811 299 13053ft 257kts
17-Nov-20 20:00 40.876744 -112.283011 36 14682ft 298kts
17-Nov-20 20:01 40.920674 -112.187305 50 16323ft 310kts
17-Nov-20 20:02 40.980187 -112.099226 44 17339ft 346kts
17-Nov-20 20:03 41.047627 -111.992481 55 17757ft 412kts
17-Nov-20 20:04 41.102677 -111.851195 61 19315ft 442kts
17-Nov-20 20:05 41.192655 -111.751603 11 21168ft 437kts
17-Nov-20 20:06 41.314078 -111.723021 7 22950ft 448kts
17-Nov-20 20:08 41.436572 -111.686767 14 24296ft 459kts
17-Nov-20 20:09 41.559071 -111.635944 13 25995ft 470kts
17-Nov-20 20:10 41.686649 -111.584299 14 27591ft 481kts
17-Nov-20 20:11 41.816978 -111.535124 8 29044ft 489kts
17-Nov-20 20:12 41.952427 -111.507257 5 30528ft 492kts
17-Nov-20 20:13 42.087503 -111.478925 6 30994ft 489kts
17-Nov-20 20:14 42.221599 -111.450181 6 30993ft 489kts
17-Nov-20 20:15 42.351180 -111.391500 25 30992ft 497kts
17-Nov-20 20:16 42.470071 -111.296731 28 30993ft 498kts
17-Nov-20 20:17 42.589449 -111.199442 28 30993ft 498kts
17-Nov-20 20:18 42.708799 -111.103122 28 30994ft 498kts
17-Nov-20 20:19 42.827249 -111.006614 28 30993ft 498kts
17-Nov-20 20:20 42.945973 -110.909348 28 30993ft 498kts
17-Nov-20 20:21 43.065066 -110.811323 28 30994ft 498kts
17-Nov-20 20:22 43.183885 -110.713072 28 30993ft 499kts
17-Nov-20 20:23 43.303032 -110.614095 28 30993ft 499kts
17-Nov-20 20:24 43.421635 -110.515112 28 30994ft 499kts
17-Nov-20 20:25 43.540244 -110.415664 28 30993ft 499kts
17-Nov-20 20:26 43.658592 -110.315971 28 30993ft 499kts
17-Nov-20 20:27 43.776579 -110.216117 29 30994ft 499kts
17-Nov-20 20:27 43.875778 -110.131799 29 30993ft 499kts
17-Nov-20 20:29 44.013703 -110.014007 29 30993ft 499kts
17-Nov-20 20:29 44.112190 -109.929904 29 30993ft 499kts
17-Nov-20 20:31 44.249848 -109.810875 29 30993ft 499kts
17-Nov-20 20:31 44.349099 -109.729101 24 30996ft 484kts
17-Nov-20 20:32 44.468139 -109.647269 23 30011ft 475kts
17-Nov-20 20:33 44.585008 -109.564537 24 28227ft 463kts
17-Nov-20 20:35 44.717192 -109.470891 23 26189ft 449kts
17-Nov-20 20:35 44.809473 -109.404938 24 24744ft 440kts
17-Nov-20 20:36 44.917486 -109.327724 24 24006ft 435kts
17-Nov-20 20:37 45.024852 -109.250075 24 23095ft 428kts
17-Nov-20 20:38 45.129581 -109.174097 24 21412ft 419kts
17-Nov-20 20:39 45.231777 -109.099868 23 19785ft 409kts
17-Nov-20 20:40 45.330136 -109.027921 24 18737ft 365kts
17-Nov-20 20:41 45.412497 -108.967255 23 17691ft 313kts
17-Nov-20 20:42 45.484927 -108.903377 51 15557ft 308kts
17-Nov-20 20:43 45.518615 -108.793386 69 13515ft 300kts
17-Nov-20 20:44 45.546187 -108.686965 68 11899ft 276kts
17-Nov-20 20:45 45.572514 -108.586195 68 9997ft 267kts
17-Nov-20 20:46 45.598259 -108.487538 68 8970ft 263kts
17-Nov-20 20:47 45.625568 -108.390388 55 9001ft 263kts
17-Nov-20 20:48 45.677306 -108.318309 37 8215ft 262kts
17-Nov-20 20:49 45.739499 -108.292051 321 6406ft 248kts
17-Nov-20 20:50 45.764228 -108.380645 286 5083ft 230kts
17-Nov-20 20:51 45.786041 -108.459076 288 4490ft 204kts
17-Nov-20 20:52 45.805412 -108.528660 291 3666ft 154kts
17-Nov-20 20:53 45.810605 -108.547729 234 3665ft 5kts
17-Nov-20 20:54 45.808887 -108.547627 152 3665ft 7kts
17-Nov-20 20:55 45.807500 -108.542707 112 3665ft 15kts
17-Nov-20 20:56 45.805190 -108.537404 146 3665ft 14kts
17-Nov-20 20:57 45.804213 -108.537043 178 3665ft 0kts
17-Nov-20 20:58 45.804213 -108.537043 178 3665ft 0kts

Navigation Log

Ident Type
Flight plan parsing failed, navigation log unavailable